Time;durP1;ratioP1;P1;durP2;ratioP2;P2;SDS_P1;SDS_P2;PMS_P1;PMS_P2;Temp;Humidity;BMP_temperature;BMP_pressure;BME280_temperature;BME280_humidity;BME280_pressure;Samples;Min_cycle;Max_cycle;Signal;HPM_P1;HPM_P2
2021/12/24 00:00:53;;;;;;;4.77;4.37;;;17.40;54.70;18.20;99751.00;;;;4948599;28;20250;-38
2021/12/24 00:03:19;;;;;;;4.83;4.43;;;17.40;54.80;18.20;99741.00;;;;4947227;29;20181;-38
2021/12/24 00:05:45;;;;;;;4.23;3.93;;;17.30;55.30;18.20;99745.00;;;;4947953;29;20479;-38
2021/12/24 00:08:10;;;;;;;4.50;4.10;;;17.30;54.70;18.20;99750.00;;;;4948245;28;20212;-38
2021/12/24 00:10:37;;;;;;;4.80;4.40;;;17.30;54.80;18.20;99754.00;;;;4947023;28;20186;-38
2021/12/24 00:13:08;;;;;;;4.30;4.00;;;17.30;54.80;18.20;99741.00;;;;4946885;29;20166;-39
2021/12/24 00:18:28;;;;;;;4.40;4.00;;;17.20;54.80;18.10;99736.00;;;;4948111;29;20166;-38
2021/12/24 00:37:09;;;;;;;4.20;3.80;;;17.00;55.00;18.00;99729.00;;;;4947508;29;20208;-38
2021/12/24 00:39:42;;;;;;;4.33;3.93;;;17.00;55.00;17.90;99729.00;;;;4947925;28;20198;-38
2021/12/24 00:42:08;;;;;;;4.20;3.90;;;16.90;55.00;17.90;99726.00;;;;4947628;29;20182;-38
2021/12/24 00:44:34;;;;;;;4.50;4.10;;;16.90;55.10;17.90;99729.00;;;;4947922;28;20252;-38
2021/12/24 00:47:01;;;;;;;4.63;4.13;;;16.90;55.40;17.90;99717.00;;;;4947429;29;20656;-38
2021/12/24 00:49:27;;;;;;;4.20;3.90;;;16.90;55.10;17.90;99723.00;;;;4947926;29;20291;-38
2021/12/24 00:57:25;;;;;;;4.37;4.07;;;16.80;55.10;17.80;99725.00;;;;4947247;29;20186;-38
2021/12/24 00:59:51;;;;;;;4.50;4.10;;;16.80;55.10;17.80;99728.00;;;;4947520;28;20178;-39
2021/12/24 01:02:17;;;;;;;4.23;3.83;;;16.80;55.10;17.80;99733.00;;;;4947640;29;20659;-39
2021/12/24 01:04:42;;;;;;;4.20;3.80;;;16.80;55.10;17.80;99716.00;;;;4947505;29;20252;-39
2021/12/24 01:07:09;;;;;;;4.30;3.90;;;16.80;55.40;17.80;99714.00;;;;4947324;28;20193;-38
2021/12/24 01:09:35;;;;;;;4.00;3.70;;;16.80;55.30;17.80;99706.00;;;;4947737;28;20265;-38
2021/12/24 01:12:01;;;;;;;4.30;3.90;;;16.80;55.30;17.70;99713.00;;;;4947353;29;20249;-38
2021/12/24 01:14:28;;;;;;;4.00;3.70;;;16.80;55.20;17.70;99711.00;;;;4947023;29;20685;-38
2021/12/24 01:17:08;;;;;;;3.63;3.33;;;16.70;55.20;17.70;99712.00;;;;4947594;29;20616;-38
2021/12/24 01:19:37;;;;;;;3.77;3.43;;;16.70;55.50;17.70;99705.00;;;;4947727;29;20220;-38
2021/12/24 01:25:32;;;;;;;4.40;4.00;;;16.70;55.60;17.70;99701.00;;;;4950958;28;20696;-38
2021/12/24 01:28:01;;;;;;;4.07;3.70;;;16.70;55.70;17.70;99702.00;;;;4952864;28;20240;-38
2021/12/24 01:41:19;;;;;;;3.70;3.40;;;16.60;55.60;17.60;99709.00;;;;4951283;29;20181;-39
2021/12/24 01:43:45;;;;;;;3.83;3.50;;;16.60;55.60;17.50;99703.00;;;;4950794;29;20181;-39
2021/12/24 01:46:12;;;;;;;3.80;3.50;;;16.60;55.70;17.50;99701.00;;;;4950898;29;20201;-39
2021/12/24 01:48:38;;;;;;;3.77;3.47;;;16.60;55.70;17.50;99695.00;;;;4950730;28;20232;-39
2021/12/24 01:51:04;;;;;;;3.70;3.40;;;16.60;55.70;17.60;99695.00;;;;4950582;29;20197;-39
2021/12/24 01:53:33;;;;;;;3.50;3.20;;;16.60;55.70;17.60;99697.00;;;;4950917;28;20208;-39
2021/12/24 01:55:59;;;;;;;3.70;3.40;;;16.50;56.00;17.60;99697.00;;;;4950615;28;20193;-39
2021/12/24 01:58:26;;;;;;;3.63;3.33;;;16.50;55.70;17.60;99695.00;;;;4950596;28;20185;-39
2021/12/24 02:00:53;;;;;;;3.60;3.30;;;16.50;55.80;17.60;99700.00;;;;4950678;28;20178;-39
2021/12/24 02:03:19;;;;;;;3.80;3.50;;;16.50;55.70;17.60;99694.00;;;;4950605;28;20174;-39
2021/12/24 02:05:45;;;;;;;3.67;3.37;;;16.50;55.90;17.60;99696.00;;;;4950555;28;20196;-39
2021/12/24 02:08:11;;;;;;;3.67;3.37;;;16.50;55.80;17.60;99687.00;;;;4950517;28;20684;-39
2021/12/24 02:10:37;;;;;;;3.53;3.23;;;16.40;55.90;17.50;99693.00;;;;4950570;29;20173;-39
2021/12/24 02:13:03;;;;;;;3.60;3.30;;;16.50;55.80;17.50;99691.00;;;;4950435;29;20174;-39
2021/12/24 02:28:38;;;;;;;3.33;3.10;;;16.40;55.70;17.50;99687.00;;;;4950095;29;20248;-39
2021/12/24 02:31:07;;;;;;;3.50;3.20;;;16.40;55.90;17.50;99678.00;;;;4950162;29;20193;-37
2021/12/24 02:33:33;;;;;;;3.37;3.10;;;16.40;55.90;17.40;99678.00;;;;4949092;28;20216;-38
2021/12/24 02:35:58;;;;;;;3.20;3.00;;;16.50;56.00;17.40;99671.00;;;;4950053;29;20193;-38
2021/12/24 02:38:24;;;;;;;3.60;3.30;;;16.30;55.80;17.40;99661.00;;;;4949880;29;20177;-38
2021/12/24 02:40:50;;;;;;;3.60;3.30;;;16.30;55.80;17.40;99668.00;;;;4949861;29;20231;-38
2021/12/24 02:43:19;;;;;;;3.23;3.03;;;16.30;55.80;17.40;99660.00;;;;4949935;29;20715;-37
2021/12/24 02:45:47;;;;;;;3.00;2.80;;;16.30;55.80;17.30;99667.00;;;;4949838;29;20263;-39
2021/12/24 02:53:59;;;;;;;3.40;3.10;;;16.30;55.80;17.30;99648.00;;;;4950049;29;20536;-38
2021/12/24 02:56:31;;;;;;;3.40;3.10;;;16.20;56.20;17.30;99647.00;;;;4949820;28;20162;-37
2021/12/24 02:59:04;;;;;;;3.87;3.10;;;16.20;56.20;17.30;99648.00;;;;4949713;28;20173;-37
2021/12/24 03:01:36;;;;;;;3.37;3.13;;;16.20;56.00;17.20;99648.00;;;;4949531;28;20166;-37
2021/12/24 03:04:03;;;;;;;3.10;2.90;;;16.20;56.00;17.20;99654.00;;;;4949389;28;20150;-38
2021/12/24 03:06:32;;;;;;;3.20;3.00;;;16.20;56.10;17.20;99649.00;;;;4948019;29;20180;-38
2021/12/24 03:08:57;;;;;;;3.20;3.00;;;16.20;56.00;17.20;99653.00;;;;4949106;28;20184;-38
2021/12/24 03:11:23;;;;;;;3.63;3.33;;;16.20;56.00;17.20;99640.00;;;;4949338;28;20174;-38
2021/12/24 03:13:49;;;;;;;3.20;2.90;;;16.20;56.10;17.20;99624.00;;;;4949286;28;20539;-38
2021/12/24 03:16:15;;;;;;;3.20;3.00;;;16.20;56.00;17.20;99644.00;;;;4947919;29;20194;-38
2021/12/24 03:18:42;;;;;;;3.37;3.07;;;16.20;56.10;17.20;99640.00;;;;4949026;28;20516;-38
2021/12/24 03:23:41;;;;;;;3.10;2.80;;;16.10;56.10;17.20;99637.00;;;;4949235;28;20174;-38
2021/12/24 03:26:10;;;;;;;2.90;2.70;;;16.10;56.10;17.10;99636.00;;;;4949034;28;20194;-38
2021/12/24 03:28:36;;;;;;;3.27;2.97;;;16.10;56.20;17.10;99644.00;;;;4948692;28;20296;-38
2021/12/24 03:31:03;;;;;;;3.30;3.00;;;16.10;56.10;17.10;99643.00;;;;4948902;29;20269;-38
2021/12/24 03:33:28;;;;;;;3.23;2.93;;;16.10;56.00;17.10;99649.00;;;;4947564;29;20232;-38
2021/12/24 03:35:54;;;;;;;3.00;2.80;;;16.10;56.20;17.10;99654.00;;;;4948846;29;20193;-38
2021/12/24 03:38:20;;;;;;;3.23;3.00;;;16.10;56.20;17.10;99658.00;;;;4948619;28;20811;-38
2021/12/24 03:40:46;;;;;;;3.17;2.90;;;16.10;56.20;17.10;99656.00;;;;4948882;29;20266;-38
2021/12/24 03:43:11;;;;;;;3.10;2.87;;;16.10;56.30;17.10;99654.00;;;;4948524;29;20177;-38
2021/12/24 03:45:47;;;;;;;3.40;3.10;;;16.10;56.40;17.10;99649.00;;;;4948735;28;20197;-38
2021/12/24 03:48:21;;;;;;;3.07;2.83;;;16.10;56.20;17.10;99651.00;;;;4949081;29;20256;-38
2021/12/24 03:50:56;;;;;;;3.10;2.90;;;16.00;56.00;17.00;99644.00;;;;4948764;28;20580;-38
2021/12/24 03:56:26;;;;;;;4.93;2.93;;;16.00;56.30;17.10;99643.00;;;;4964729;28;20215;-38
2021/12/24 03:58:52;;;;;;;3.73;2.80;;;16.00;56.80;17.10;99639.00;;;;4964934;28;20244;-38
2021/12/24 04:01:18;;;;;;;5.13;2.90;;;16.00;56.60;17.10;99650.00;;;;4957120;28;20228;-38
2021/12/24 04:03:44;;;;;;;3.23;2.70;;;16.00;56.50;17.10;99648.00;;;;4948374;29;20719;-38
2021/12/24 04:06:10;;;;;;;3.97;3.00;;;16.00;56.20;17.00;99641.00;;;;4948034;29;20530;-38
2021/12/24 04:08:35;;;;;;;2.87;2.67;;;16.00;56.30;17.00;99642.00;;;;4948604;28;20189;-37
2021/12/24 04:11:01;;;;;;;6.27;3.03;;;16.10;56.90;17.00;99638.00;;;;4948510;28;20177;-38
2021/12/24 04:13:27;;;;;;;4.93;2.80;;;16.00;56.20;17.00;99646.00;;;;4948281;28;20357;-37
2021/12/24 04:15:52;;;;;;;4.07;2.93;;;16.00;56.10;17.00;99642.00;;;;4947600;28;20201;-38
2021/12/24 04:18:36;;;;;;;2.80;2.60;;;16.00;56.20;17.00;99652.00;;;;4947849;28;20645;-37
2021/12/24 04:26:31;;;;;;;3.27;2.97;;;15.90;56.90;16.90;99650.00;;;;4947914;29;20240;-37
2021/12/24 04:28:58;;;;;;;2.63;2.43;;;15.90;56.10;16.90;99658.00;;;;4947885;28;20213;-39
2021/12/24 04:31:37;;;;;;;2.90;2.70;;;16.00;56.10;16.90;99660.00;;;;4947481;28;20170;-39
2021/12/24 04:34:03;;;;;;;3.13;2.80;;;15.90;56.20;16.90;99654.00;;;;4948129;28;20153;-39
2021/12/24 05:03:08;;;;;;;4.33;2.87;;;15.80;56.50;16.80;99660.00;;;;4947632;29;20213;-39
2021/12/24 05:05:47;;;;;;;2.80;2.60;;;15.80;56.50;16.80;99663.00;;;;4947834;28;20194;-39
2021/12/24 05:10:39;;;;;;;4.13;3.00;;;15.80;56.50;16.80;99652.00;;;;4947837;29;20648;-39
2021/12/24 05:13:10;;;;;;;3.80;3.00;;;15.80;56.80;16.80;99668.00;;;;4947500;28;20256;-39
2021/12/24 05:15:38;;;;;;;5.10;3.30;;;15.80;56.60;16.80;99660.00;;;;4947538;28;20200;-39
2021/12/24 05:18:12;;;;;;;4.07;3.30;;;15.70;56.50;16.80;99662.00;;;;4947467;28;20248;-39
2021/12/24 05:23:22;;;;;;;3.40;3.10;;;15.70;57.10;16.70;99669.00;;;;4947351;29;20212;-39
2021/12/24 05:25:50;;;;;;;3.20;2.90;;;15.70;56.50;16.70;99659.00;;;;4947515;28;20845;-39
2021/12/24 05:28:16;;;;;;;3.13;2.90;;;15.70;56.60;16.70;99664.00;;;;4947440;29;20208;-39
2021/12/24 05:30:41;;;;;;;3.30;3.00;;;15.80;56.70;16.70;99656.00;;;;4946305;29;20170;-39
2021/12/24 05:33:11;;;;;;;4.67;3.57;;;15.70;56.50;16.70;99662.00;;;;4947155;28;20170;-39
2021/12/24 05:35:37;;;;;;;4.07;3.30;;;15.70;56.60;16.70;99666.00;;;;4947517;29;20704;-39
2021/12/24 05:38:03;;;;;;;3.43;3.13;;;15.70;56.70;16.70;99667.00;;;;4947181;28;20185;-39
2021/12/24 05:40:29;;;;;;;3.50;3.20;;;15.70;56.50;16.70;99675.00;;;;4946499;29;20768;-38
2021/12/24 05:42:54;;;;;;;3.43;3.13;;;15.60;56.40;16.70;99675.00;;;;4947415;28;20265;-38
2021/12/24 05:45:20;;;;;;;4.07;3.00;;;15.60;56.60;16.70;99676.00;;;;4946933;29;20743;-39
2021/12/24 05:47:46;;;;;;;4.20;3.40;;;15.70;57.00;16.70;99683.00;;;;4947036;29;20208;-39
2021/12/24 05:50:11;;;;;;;4.03;3.20;;;15.70;57.00;16.70;99687.00;;;;4947311;28;20174;-39
2021/12/24 05:52:37;;;;;;;5.57;3.50;;;15.60;56.70;16.70;99685.00;;;;4951576;28;20193;-39
2021/12/24 05:55:04;;;;;;;3.90;3.20;;;15.60;56.80;16.70;99670.00;;;;4964000;28;20207;-39
2021/12/24 05:57:30;;;;;;;3.53;3.23;;;15.70;57.00;16.70;99685.00;;;;4965750;28;20176;-39
2021/12/24 05:59:56;;;;;;;6.50;3.53;;;15.70;57.00;16.70;99677.00;;;;4966309;28;20189;-39
2021/12/24 06:02:22;;;;;;;6.37;3.43;;;15.60;56.90;16.70;99684.00;;;;4965988;28;20678;-39
2021/12/24 06:04:47;;;;;;;3.57;3.10;;;15.70;56.80;16.70;99673.00;;;;4965915;28;20271;-39
2021/12/24 06:07:13;;;;;;;4.03;3.20;;;15.70;56.70;16.70;99678.00;;;;4963749;28;20204;-39
2021/12/24 06:09:39;;;;;;;4.13;3.13;;;15.70;56.80;16.70;99673.00;;;;4971838;28;20240;-39
2021/12/24 06:12:05;;;;;;;4.77;3.27;;;15.60;56.90;16.70;99690.00;;;;4972893;28;20181;-39
2021/12/24 06:14:31;;;;;;;3.83;3.10;;;15.70;57.00;16.70;99688.00;;;;4972441;28;20565;-39
2021/12/24 06:17:02;;;;;;;3.90;3.30;;;15.60;57.00;16.70;99682.00;;;;4972305;28;20169;-39
2021/12/24 06:19:28;;;;;;;5.33;3.17;;;15.60;56.80;16.70;99685.00;;;;4972726;28;20173;-39
2021/12/24 06:21:55;;;;;;;3.50;3.20;;;15.60;56.70;16.70;99688.00;;;;4972387;28;20312;-39
2021/12/24 06:24:20;;;;;;;5.73;3.20;;;15.60;56.90;16.70;99684.00;;;;4972234;28;20197;-39
2021/12/24 06:26:47;;;;;;;4.10;3.13;;;15.60;56.90;16.60;99670.00;;;;4972192;28;20172;-39
2021/12/24 06:29:13;;;;;;;3.70;3.10;;;15.60;56.80;16.60;99681.00;;;;4971605;28;20300;-39
2021/12/24 06:31:38;;;;;;;3.80;2.83;;;15.60;56.80;16.60;99678.00;;;;4972441;28;20177;-39
2021/12/24 06:34:04;;;;;;;4.40;3.20;;;15.60;56.90;16.60;99684.00;;;;4971770;28;20552;-39
2021/12/24 06:36:34;;;;;;;3.00;2.70;;;15.60;56.90;16.60;99689.00;;;;4971835;28;20188;-39
2021/12/24 06:39:00;;;;;;;3.37;3.00;;;15.60;56.90;16.60;99687.00;;;;4971727;28;20179;-39
2021/12/24 06:41:25;;;;;;;3.43;3.10;;;15.50;56.90;16.60;99691.00;;;;4971890;28;20181;-39
2021/12/24 06:43:51;;;;;;;5.00;3.00;;;15.60;56.90;16.60;99699.00;;;;4971702;28;20192;-38
2021/12/24 06:46:17;;;;;;;2.97;2.70;;;15.60;57.10;16.60;99696.00;;;;4971565;28;20643;-39
2021/12/24 06:48:43;;;;;;;3.47;2.90;;;15.50;56.90;16.60;99691.00;;;;4971331;28;20189;-39
2021/12/24 06:51:09;;;;;;;4.73;3.00;;;15.50;57.00;16.60;99695.00;;;;4972431;28;20171;-39
2021/12/24 06:53:34;;;;;;;3.13;2.73;;;15.50;56.90;16.60;99690.00;;;;4971852;28;20664;-37
2021/12/24 06:56:00;;;;;;;3.33;2.90;;;15.50;57.10;16.60;99685.00;;;;4971998;28;20197;-37
2021/12/24 06:58:26;;;;;;;3.30;3.00;;;15.50;57.20;16.50;99696.00;;;;4971409;28;20170;-38
2021/12/24 07:00:52;;;;;;;3.60;3.30;;;15.50;57.10;16.60;99688.00;;;;4971675;28;20231;-38
2021/12/24 07:03:17;;;;;;;4.37;3.23;;;15.50;57.20;16.50;99686.00;;;;4971693;28;20197;-38
2021/12/24 07:05:43;;;;;;;3.00;2.60;;;15.50;57.30;16.50;99692.00;;;;4971316;28;20719;-39
2021/12/24 07:08:09;;;;;;;3.77;3.00;;;15.50;57.00;16.50;99698.00;;;;4971104;28;20232;-38
2021/12/24 07:10:34;;;;;;;3.10;2.80;;;15.50;57.20;16.50;99691.00;;;;4971891;28;20170;-38
2021/12/24 07:13:00;;;;;;;3.27;3.03;;;15.50;57.10;16.50;99693.00;;;;4971057;28;20834;-38
2021/12/24 07:15:26;;;;;;;3.10;2.80;;;15.50;57.30;16.50;99699.00;;;;4971516;28;20189;-38
2021/12/24 07:17:51;;;;;;;3.43;3.07;;;15.50;57.00;16.50;99698.00;;;;4971169;28;20180;-38
2021/12/24 07:20:17;;;;;;;3.10;2.80;;;15.50;57.20;16.50;99709.00;;;;4971228;28;20772;-38
2021/12/24 07:22:43;;;;;;;3.20;2.90;;;15.50;57.20;16.50;99720.00;;;;4971597;28;20184;-38
2021/12/24 07:25:09;;;;;;;3.30;3.00;;;15.40;57.10;16.50;99716.00;;;;4971193;28;20224;-38
2021/12/24 07:27:35;;;;;;;3.80;3.00;;;15.40;57.10;16.50;99720.00;;;;4970680;28;20982;-38
2021/12/24 07:30:01;;;;;;;3.00;2.80;;;15.40;57.80;16.50;99714.00;;;;4971273;28;20169;-38
2021/12/24 07:32:26;;;;;;;3.63;3.03;;;15.40;57.10;16.50;99718.00;;;;4964079;28;20577;-38
2021/12/24 07:34:52;;;;;;;3.07;2.70;;;15.40;57.20;16.50;99717.00;;;;4951739;28;20189;-38
2021/12/24 07:37:18;;;;;;;3.63;2.80;;;15.40;57.20;16.50;99717.00;;;;4950927;28;20713;-38
2021/12/24 07:39:43;;;;;;;3.23;2.93;;;15.40;57.20;16.50;99718.00;;;;4951736;28;20170;-38
2021/12/24 07:42:09;;;;;;;3.17;2.87;;;15.40;57.20;16.50;99722.00;;;;4951500;29;20557;-38
2021/12/24 07:44:35;;;;;;;3.10;2.80;;;15.40;57.60;16.50;99721.00;;;;4951530;28;20202;-38
2021/12/24 07:47:06;;;;;;;3.33;2.73;;;15.40;57.60;16.50;99716.00;;;;4950955;28;20191;-38
2021/12/24 07:49:38;;;;;;;3.47;2.90;;;15.40;58.30;16.50;99721.00;;;;4951199;29;20261;-38
2021/12/24 07:52:11;;;;;;;3.10;2.80;;;15.40;57.80;16.50;99718.00;;;;4951541;28;20178;-38
2021/12/24 07:54:45;;;;;;;3.33;2.90;;;15.40;57.90;16.50;99725.00;;;;4951387;29;20696;-37
2021/12/24 07:57:12;;;;;;;3.70;2.93;;;15.40;58.30;16.50;99731.00;;;;4951506;28;20166;-38
2021/12/24 07:59:39;;;;;;;14.17;3.30;;;15.40;57.70;16.50;99724.00;;;;4951553;28;20665;-38
2021/12/24 08:02:11;;;;;;;5.30;3.43;;;15.40;57.70;16.50;99722.00;;;;4951235;28;20192;-39
2021/12/24 08:04:38;;;;;;;3.67;2.87;;;15.40;57.70;16.50;99721.00;;;;4951763;28;20729;-39
2021/12/24 08:07:03;;;;;;;3.83;3.10;;;15.40;57.70;16.50;99721.00;;;;4949336;29;20202;-39
2021/12/24 08:09:29;;;;;;;9.73;3.20;;;15.40;57.90;16.50;99717.00;;;;4951018;29;20173;-39
2021/12/24 08:11:55;;;;;;;6.80;3.20;;;15.40;58.00;16.50;99711.00;;;;4950973;28;20173;-39
2021/12/24 08:14:21;;;;;;;3.20;2.90;;;15.40;58.40;16.50;99714.00;;;;4951212;28;20730;-39
2021/12/24 08:16:46;;;;;;;6.13;2.90;;;15.40;58.30;16.50;99707.00;;;;4950872;28;20166;-39
2021/12/24 08:19:15;;;;;;;3.50;3.00;;;15.40;58.20;16.50;99709.00;;;;4950769;28;20225;-39
2021/12/24 08:21:42;;;;;;;5.57;3.40;;;15.40;58.20;16.50;99708.00;;;;4950531;29;20182;-39
2021/12/24 08:24:08;;;;;;;5.93;3.17;;;15.40;58.00;16.40;99717.00;;;;4951031;28;20560;-39
2021/12/24 08:26:34;;;;;;;7.03;3.00;;;15.40;57.90;16.40;99711.00;;;;4950270;28;20217;-39
2021/12/24 08:28:59;;;;;;;3.87;3.03;;;15.40;57.90;16.40;99715.00;;;;4950591;28;20194;-39
2021/12/24 08:31:25;;;;;;;5.50;3.10;;;15.30;57.80;16.40;99705.00;;;;4950026;28;20169;-39
2021/12/24 08:33:51;;;;;;;3.87;2.90;;;15.30;57.90;16.40;99708.00;;;;4950844;28;20212;-39
2021/12/24 08:36:17;;;;;;;3.37;3.07;;;15.30;57.80;16.40;99704.00;;;;4950075;28;20193;-39
2021/12/24 08:38:42;;;;;;;3.00;2.70;;;15.30;58.00;16.40;99698.00;;;;4954852;28;20208;-39
2021/12/24 08:41:08;;;;;;;3.70;3.17;;;15.40;57.90;16.40;99705.00;;;;4965513;28;20185;-39
2021/12/24 08:43:34;;;;;;;3.70;2.90;;;15.30;58.00;16.40;99697.00;;;;4969883;28;20713;-38
2021/12/24 08:46:00;;;;;;;7.10;3.40;;;15.30;58.50;16.40;99696.00;;;;4968308;28;20239;-38
2021/12/24 08:48:25;;;;;;;3.47;3.00;;;15.30;58.60;16.40;99695.00;;;;4969412;28;20200;-38
2021/12/24 08:50:51;;;;;;;5.70;3.20;;;15.30;58.70;16.40;99689.00;;;;4969389;28;20184;-38
2021/12/24 08:53:17;;;;;;;6.57;3.20;;;15.30;58.70;16.40;99688.00;;;;4969649;28;20165;-38
2021/12/24 08:55:43;;;;;;;3.83;3.33;;;15.30;58.90;16.40;99687.00;;;;4969515;28;20221;-38
2021/12/24 08:58:08;;;;;;;5.13;3.17;;;15.30;58.60;16.40;99691.00;;;;4969210;28;20177;-38
2021/12/24 09:00:34;;;;;;;3.80;3.30;;;15.30;59.00;16.40;99686.00;;;;4965293;28;20193;-43
2021/12/24 09:03:01;;;;;;;4.00;3.23;;;15.30;59.10;16.40;99687.00;;;;4968253;28;20265;-38
2021/12/24 09:05:28;;;;;;;4.00;3.60;;;15.30;59.00;16.40;99681.00;;;;4968544;28;20735;-38
2021/12/24 09:07:54;;;;;;;5.53;3.40;;;15.30;59.10;16.40;99673.00;;;;4967511;28;20197;-38
2021/12/24 09:10:20;;;;;;;7.73;3.57;;;15.30;59.30;16.40;99672.00;;;;4957307;28;20245;-39
2021/12/24 09:12:48;;;;;;;4.10;3.10;;;15.30;59.30;16.40;99659.00;;;;4947477;28;20842;-38
2021/12/24 09:15:15;;;;;;;4.33;3.47;;;15.30;58.70;16.40;99655.00;;;;4949060;28;20201;-38
2021/12/24 09:17:44;;;;;;;3.40;3.10;;;15.40;58.40;16.50;99665.00;;;;4948308;28;20184;-38
2021/12/24 09:20:23;;;;;;;4.93;3.07;;;15.50;58.40;16.50;99665.00;;;;4949871;28;20696;-38
2021/12/24 09:22:49;;;;;;;5.20;3.10;;;15.70;58.20;16.60;99659.00;;;;4948890;28;20185;-38
2021/12/24 09:25:15;;;;;;;4.53;3.00;;;16.00;57.80;16.70;99664.00;;;;4949939;28;20209;-38
2021/12/24 09:27:41;;;;;;;4.10;3.10;;;16.30;57.50;16.80;99656.00;;;;4949301;28;20205;-38
2021/12/24 09:30:08;;;;;;;4.23;2.93;;;16.60;57.10;17.00;99666.00;;;;4949871;28;20177;-38
2021/12/24 09:32:33;;;;;;;4.23;2.93;;;16.90;56.70;17.20;99667.00;;;;4949809;28;20193;-38
2021/12/24 09:34:59;;;;;;;4.33;3.03;;;17.30;56.40;17.40;99665.00;;;;4949810;28;20198;-38
2021/12/24 09:37:25;;;;;;;4.67;2.80;;;17.40;56.00;17.50;99663.00;;;;4949588;28;20650;-39
2021/12/24 09:39:50;;;;;;;3.67;2.80;;;17.60;56.00;17.70;99655.00;;;;4949446;28;20178;-38
2021/12/24 09:42:16;;;;;;;3.40;2.97;;;17.70;55.70;17.80;99656.00;;;;4950953;28;20185;-38
2021/12/24 09:44:42;;;;;;;3.00;2.70;;;17.90;55.70;17.90;99661.00;;;;4953509;28;20195;-38
2021/12/24 09:47:08;;;;;;;4.53;3.30;;;17.90;55.50;18.10;99658.00;;;;4953150;28;20296;-38
2021/12/24 09:49:34;;;;;;;3.13;2.80;;;18.10;55.50;18.20;99649.00;;;;4952859;28;20220;-38
2021/12/24 09:52:01;;;;;;;5.00;2.90;;;18.20;55.50;18.30;99652.00;;;;4953759;28;20664;-38
2021/12/24 09:54:26;;;;;;;3.13;2.60;;;18.20;55.30;18.30;99653.00;;;;4953701;28;20198;-38
2021/12/24 09:56:54;;;;;;;5.03;2.77;;;18.30;55.50;18.50;99652.00;;;;4953349;28;20174;-38
2021/12/24 09:59:19;;;;;;;4.27;2.73;;;18.40;55.40;18.50;99652.00;;;;4953842;28;20187;-38
2021/12/24 10:02:00;;;;;;;3.50;2.70;;;18.40;55.40;18.60;99649.00;;;;4953415;28;20533;-38
2021/12/24 10:04:31;;;;;;;4.33;2.67;;;18.50;55.50;18.70;99650.00;;;;4952925;28;20249;-37
2021/12/24 10:07:08;;;;;;;3.77;2.80;;;18.50;55.60;18.70;99657.00;;;;4951605;29;20262;-37
2021/12/24 10:09:36;;;;;;;3.40;2.53;;;18.50;55.70;18.80;99646.00;;;;4953464;28;20167;-38
2021/12/24 10:12:15;;;;;;;3.00;2.63;;;18.50;55.70;18.80;99650.00;;;;4953048;28;20198;-38
2021/12/24 10:14:46;;;;;;;4.53;2.70;;;18.50;55.70;18.80;99640.00;;;;4953582;28;20214;-38
2021/12/24 10:17:16;;;;;;;3.93;2.70;;;18.50;55.70;18.90;99653.00;;;;4951788;29;20539;-38
2021/12/24 10:19:57;;;;;;;3.87;2.50;;;18.50;55.70;18.90;99640.00;;;;4966267;28;20228;-38
2021/12/24 10:22:22;;;;;;;3.87;2.80;;;18.40;55.80;18.90;99649.00;;;;4972322;28;20172;-38
2021/12/24 10:25:05;;;;;;;3.20;2.53;;;18.40;55.90;18.90;99638.00;;;;4971736;28;20205;-38
2021/12/24 10:27:32;;;;;;;4.07;2.77;;;18.40;56.00;18.90;99647.00;;;;4971608;28;20222;-38
2021/12/24 10:29:58;;;;;;;4.87;2.50;;;18.30;56.10;18.90;99647.00;;;;4972238;28;20178;-38
2021/12/24 10:32:24;;;;;;;8.93;2.93;;;18.30;56.40;18.90;99652.00;;;;4972513;28;20493;-38
2021/12/24 10:34:50;;;;;;;5.30;2.90;;;18.20;56.50;18.90;99653.00;;;;4971860;28;20188;-39
2021/12/24 10:37:23;;;;;;;3.53;2.70;;;18.20;56.60;18.90;99653.00;;;;4971618;28;20178;-39
2021/12/24 10:39:53;;;;;;;4.27;2.70;;;18.20;56.60;18.90;99658.00;;;;4971296;28;20233;-39
2021/12/24 10:42:39;;;;;;;3.90;2.80;;;18.20;56.60;18.90;99640.00;;;;4971927;28;20213;-38
2021/12/24 10:45:22;;;;;;;5.23;2.80;;;18.20;56.70;18.80;99643.00;;;;4971875;28;20201;-38
2021/12/24 10:47:48;;;;;;;7.97;2.80;;;18.20;56.80;18.80;99645.00;;;;4971698;28;20210;-38
2021/12/24 10:55:49;;;;;;;3.00;2.60;;;18.10;56.90;18.80;99647.00;;;;4951429;28;20198;-39
2021/12/24 10:58:23;;;;;;;4.40;2.90;;;18.10;57.00;18.80;99648.00;;;;4948354;28;20281;-38
2021/12/24 11:00:58;;;;;;;4.40;2.70;;;18.10;57.10;18.80;99652.00;;;;4966662;28;20195;-39
2021/12/24 11:03:29;;;;;;;4.27;2.90;;;18.10;57.10;18.80;99646.00;;;;4971750;28;20169;-38
2021/12/24 11:06:09;;;;;;;6.77;2.80;;;18.10;57.30;18.80;99644.00;;;;4971621;28;20269;-39
2021/12/24 11:08:35;;;;;;;5.40;2.60;;;18.10;57.30;18.70;99644.00;;;;4971086;28;20565;-39
2021/12/24 11:11:06;;;;;;;5.97;2.60;;;18.00;57.20;18.70;99647.00;;;;4971865;28;20179;-38
2021/12/24 11:13:39;;;;;;;3.83;2.70;;;18.00;57.20;18.70;99651.00;;;;4971319;28;20690;-39
2021/12/24 11:16:10;;;;;;;5.57;2.70;;;18.00;57.10;18.70;99642.00;;;;4967015;28;20281;-39
2021/12/24 11:18:43;;;;;;;3.57;2.80;;;18.00;57.00;18.70;99652.00;;;;4960028;28;20186;-39
2021/12/24 11:21:18;;;;;;;2.77;2.50;;;18.00;56.90;18.70;99650.00;;;;4952560;28;20178;-39
2021/12/24 11:23:44;;;;;;;3.37;2.60;;;18.00;56.90;18.70;99655.00;;;;4952188;28;20641;-39
2021/12/24 11:26:19;;;;;;;3.03;2.63;;;17.90;56.80;18.60;99649.00;;;;4952087;28;20205;-39
2021/12/24 11:28:45;;;;;;;4.10;2.60;;;17.90;56.80;18.60;99645.00;;;;4951900;28;20895;-39
2021/12/24 11:31:13;;;;;;;3.10;2.50;;;18.00;56.70;18.60;99572.00;;;;4951632;28;20257;-39
2021/12/24 11:33:42;;;;;;;3.80;2.60;;;18.00;56.80;18.60;99645.00;;;;4969501;28;20189;-39
2021/12/24 11:36:09;;;;;;;2.90;2.63;;;18.00;56.70;18.60;99645.00;;;;4971387;28;20197;-39
2021/12/24 11:38:41;;;;;;;2.83;2.40;;;17.90;56.60;18.60;99636.00;;;;4970963;28;20675;-39
2021/12/24 11:41:11;;;;;;;3.10;2.80;;;17.90;56.60;18.50;99635.00;;;;4971124;28;20252;-39
2021/12/24 11:43:38;;;;;;;3.50;2.50;;;17.90;56.60;18.50;99638.00;;;;4970765;28;20167;-39
2021/12/24 11:46:07;;;;;;;2.90;2.60;;;17.90;56.60;18.50;99638.00;;;;4971341;28;20220;-39
2021/12/24 11:48:33;;;;;;;3.07;2.50;;;17.80;56.60;18.50;99625.00;;;;4971597;28;20201;-39
2021/12/24 11:51:40;;;;;;;2.60;2.40;;;17.80;56.50;18.50;99621.00;;;;4970692;28;20170;-39
2021/12/24 11:54:06;;;;;;;3.83;2.80;;;17.80;56.50;18.50;99611.00;;;;4969737;28;20181;-39
2021/12/24 11:56:47;;;;;;;3.73;2.70;;;17.80;56.60;18.50;99605.00;;;;4970642;28;20173;-39
2021/12/24 11:59:13;;;;;;;4.07;2.80;;;17.90;56.50;18.60;99607.00;;;;4970997;28;20274;-39
2021/12/24 12:01:41;;;;;;;3.20;2.63;;;18.10;56.30;18.60;99601.00;;;;4970566;28;20224;-39
2021/12/24 12:04:22;;;;;;;4.00;2.60;;;18.30;56.00;18.80;99605.00;;;;4970646;28;20188;-39
2021/12/24 12:06:48;;;;;;;2.93;2.47;;;18.50;55.60;18.90;99606.00;;;;4970255;28;20169;-39
2021/12/24 12:09:13;;;;;;;3.10;2.47;;;18.80;55.70;19.10;99605.00;;;;4969919;28;20208;-39
2021/12/24 12:11:41;;;;;;;2.67;2.40;;;19.00;55.50;19.20;99605.00;;;;4970676;28;20176;-39
2021/12/24 12:14:10;;;;;;;3.37;2.57;;;19.10;55.30;19.40;99616.00;;;;4969666;28;20171;-39
2021/12/24 12:16:49;;;;;;;13.13;2.77;;;19.20;55.10;19.40;99621.00;;;;4970126;28;20536;-39
2021/12/24 12:22:25;;;;;;;3.30;2.50;;;19.30;55.40;19.60;99599.00;;;;4960042;28;20186;-39
2021/12/24 12:25:06;;;;;;;5.47;2.70;;;19.40;55.50;19.60;99600.00;;;;4951149;28;20238;-39
2021/12/24 12:27:52;;;;;;;4.80;2.63;;;19.30;55.60;19.70;99612.00;;;;4950356;28;20283;-39
2021/12/24 12:30:50;;;;;;;5.17;2.70;;;19.40;55.70;19.70;99618.00;;;;4951055;28;20609;-40
2021/12/24 12:33:22;;;;;;;5.00;2.80;;;19.40;55.60;19.70;99615.00;;;;4946059;28;20220;-39
2021/12/24 12:36:15;;;;;;;3.47;2.67;;;19.50;55.60;19.70;99611.00;;;;4950592;28;20201;-39
2021/12/24 12:38:43;;;;;;;7.03;2.87;;;19.40;55.70;19.70;99606.00;;;;4949004;28;20200;-39
2021/12/24 12:41:22;;;;;;;5.90;2.80;;;19.40;56.10;19.70;99605.00;;;;4949591;29;20592;-39
2021/12/24 12:43:49;;;;;;;5.57;2.73;;;19.40;56.20;19.80;99610.00;;;;4950499;28;20207;-39
2021/12/24 12:46:43;;;;;;;6.97;2.50;;;19.30;56.10;19.80;99602.00;;;;4954383;28;20212;-39
2021/12/24 12:49:17;;;;;;;4.23;2.60;;;19.30;56.10;19.80;99617.00;;;;4968755;28;20304;-39